sensor_id;sensor_type;location;lat;lon;timestamp;P1;durP1;ratioP1;P2;durP2;ratioP2
20336;SDS011;10326;53.660;10.200;2023-05-29T00:01:43;6.25;;;2.10;;
20336;SDS011;10326;53.660;10.200;2023-05-29T00:04:11;6.88;;;2.00;;
20336;SDS011;10326;53.660;10.200;2023-05-29T00:06:38;6.93;;;2.25;;
20336;SDS011;10326;53.660;10.200;2023-05-29T00:09:06;5.35;;;1.95;;
20336;SDS011;10326;53.660;10.200;2023-05-29T00:11:34;4.80;;;1.83;;
20336;SDS011;10326;53.660;10.200;2023-05-29T00:14:02;7.53;;;2.00;;
20336;SDS011;10326;53.660;10.200;2023-05-29T00:16:29;4.65;;;2.00;;
20336;SDS011;10326;53.660;10.200;2023-05-29T00:18:56;5.97;;;2.13;;
20336;SDS011;10326;53.660;10.200;2023-05-29T00:21:23;6.57;;;2.13;;
20336;SDS011;10326;53.660;10.200;2023-05-29T00:23:50;9.45;;;2.53;;
20336;SDS011;10326;53.660;10.200;2023-05-29T00:26:18;6.93;;;2.08;;
20336;SDS011;10326;53.660;10.200;2023-05-29T00:28:53;7.68;;;1.83;;
20336;SDS011;10326;53.660;10.200;2023-05-29T00:31:20;5.50;;;2.10;;
20336;SDS011;10326;53.660;10.200;2023-05-29T00:33:49;6.05;;;2.20;;
20336;SDS011;10326;53.660;10.200;2023-05-29T00:36:17;5.80;;;2.10;;
20336;SDS011;10326;53.660;10.200;2023-05-29T00:38:44;7.82;;;2.22;;
20336;SDS011;10326;53.660;10.200;2023-05-29T00:41:13;5.40;;;2.10;;
20336;SDS011;10326;53.660;10.200;2023-05-29T00:43:41;4.22;;;1.75;;
20336;SDS011;10326;53.660;10.200;2023-05-29T00:46:09;7.80;;;2.33;;
20336;SDS011;10326;53.660;10.200;2023-05-29T00:48:40;9.75;;;2.85;;
20336;SDS011;10326;53.660;10.200;2023-05-29T00:51:09;6.15;;;2.25;;
20336;SDS011;10326;53.660;10.200;2023-05-29T00:53:38;9.10;;;2.38;;
20336;SDS011;10326;53.660;10.200;2023-05-29T00:56:07;6.22;;;2.30;;
20336;SDS011;10326;53.660;10.200;2023-05-29T00:58:35;6.10;;;2.38;;
20336;SDS011;10326;53.660;10.200;2023-05-29T01:01:03;8.85;;;2.55;;
20336;SDS011;10326;53.660;10.200;2023-05-29T01:03:33;7.07;;;2.28;;
20336;SDS011;10326;53.660;10.200;2023-05-29T01:06:01;7.47;;;2.50;;
20336;SDS011;10326;53.660;10.200;2023-05-29T01:08:29;6.65;;;1.83;;
20336;SDS011;10326;53.660;10.200;2023-05-29T01:10:56;6.15;;;2.13;;
20336;SDS011;10326;53.660;10.200;2023-05-29T01:13:45;7.70;;;2.35;;
20336;SDS011;10326;53.660;10.200;2023-05-29T01:16:15;7.53;;;2.45;;
20336;SDS011;10326;53.660;10.200;2023-05-29T01:18:54;6.60;;;2.33;;
20336;SDS011;10326;53.660;10.200;2023-05-29T01:21:27;7.82;;;3.17;;
20336;SDS011;10326;53.660;10.200;2023-05-29T01:24:14;6.65;;;2.28;;
20336;SDS011;10326;53.660;10.200;2023-05-29T01:26:52;7.43;;;2.30;;
20336;SDS011;10326;53.660;10.200;2023-05-29T01:29:26;8.52;;;2.35;;
20336;SDS011;10326;53.660;10.200;2023-05-29T01:31:56;5.40;;;1.80;;
20336;SDS011;10326;53.660;10.200;2023-05-29T01:34:26;7.28;;;2.13;;
20336;SDS011;10326;53.660;10.200;2023-05-29T01:36:54;8.68;;;2.30;;
20336;SDS011;10326;53.660;10.200;2023-05-29T01:39:21;5.65;;;1.90;;
20336;SDS011;10326;53.660;10.200;2023-05-29T01:41:50;7.60;;;1.92;;
20336;SDS011;10326;53.660;10.200;2023-05-29T01:44:20;6.85;;;2.10;;
20336;SDS011;10326;53.660;10.200;2023-05-29T01:46:48;6.63;;;2.15;;
20336;SDS011;10326;53.660;10.200;2023-05-29T01:49:16;7.25;;;2.20;;
20336;SDS011;10326;53.660;10.200;2023-05-29T01:51:44;7.85;;;2.50;;
20336;SDS011;10326;53.660;10.200;2023-05-29T01:54:11;8.02;;;2.85;;
20336;SDS011;10326;53.660;10.200;2023-05-29T01:56:38;8.52;;;2.50;;
20336;SDS011;10326;53.660;10.200;2023-05-29T01:59:07;9.05;;;2.35;;
20336;SDS011;10326;53.660;10.200;2023-05-29T02:01:38;8.00;;;2.20;;
20336;SDS011;10326;53.660;10.200;2023-05-29T02:04:06;9.25;;;2.88;;
20336;SDS011;10326;53.660;10.200;2023-05-29T02:06:33;7.47;;;2.30;;
20336;SDS011;10326;53.660;10.200;2023-05-29T02:09:00;8.07;;;2.72;;
20336;SDS011;10326;53.660;10.200;2023-05-29T02:11:28;7.13;;;1.98;;
20336;SDS011;10326;53.660;10.200;2023-05-29T02:13:55;6.88;;;2.33;;
20336;SDS011;10326;53.660;10.200;2023-05-29T02:16:24;6.93;;;2.65;;
20336;SDS011;10326;53.660;10.200;2023-05-29T02:18:52;7.65;;;2.33;;
20336;SDS011;10326;53.660;10.200;2023-05-29T02:21:20;10.50;;;2.90;;
20336;SDS011;10326;53.660;10.200;2023-05-29T02:23:47;7.80;;;2.78;;
20336;SDS011;10326;53.660;10.200;2023-05-29T02:26:16;9.43;;;2.90;;
20336;SDS011;10326;53.660;10.200;2023-05-29T02:28:43;7.30;;;2.75;;
20336;SDS011;10326;53.660;10.200;2023-05-29T02:31:10;7.80;;;2.60;;
20336;SDS011;10326;53.660;10.200;2023-05-29T02:33:39;9.50;;;2.50;;
20336;SDS011;10326;53.660;10.200;2023-05-29T02:36:06;9.90;;;2.60;;
20336;SDS011;10326;53.660;10.200;2023-05-29T02:38:35;7.18;;;2.47;;
20336;SDS011;10326;53.660;10.200;2023-05-29T02:41:02;9.90;;;2.55;;
20336;SDS011;10326;53.660;10.200;2023-05-29T02:43:31;7.57;;;2.78;;
20336;SDS011;10326;53.660;10.200;2023-05-29T02:45:58;7.47;;;2.17;;
20336;SDS011;10326;53.660;10.200;2023-05-29T02:48:25;7.65;;;2.63;;
20336;SDS011;10326;53.660;10.200;2023-05-29T02:50:55;8.68;;;2.20;;
20336;SDS011;10326;53.660;10.200;2023-05-29T02:53:23;8.52;;;2.47;;
20336;SDS011;10326;53.660;10.200;2023-05-29T02:55:50;7.05;;;2.00;;
20336;SDS011;10326;53.660;10.200;2023-05-29T02:58:20;6.38;;;1.95;;
20336;SDS011;10326;53.660;10.200;2023-05-29T03:00:48;8.10;;;2.58;;
20336;SDS011;10326;53.660;10.200;2023-05-29T03:03:15;7.78;;;2.10;;
20336;SDS011;10326;53.660;10.200;2023-05-29T03:05:42;8.40;;;2.58;;
20336;SDS011;10326;53.660;10.200;2023-05-29T03:08:13;7.50;;;2.00;;
20336;SDS011;10326;53.660;10.200;2023-05-29T03:10:42;10.48;;;2.50;;
20336;SDS011;10326;53.660;10.200;2023-05-29T03:13:10;5.55;;;2.10;;
20336;SDS011;10326;53.660;10.200;2023-05-29T03:15:43;7.88;;;2.65;;
20336;SDS011;10326;53.660;10.200;2023-05-29T03:18:11;7.05;;;2.28;;
20336;SDS011;10326;53.660;10.200;2023-05-29T03:20:38;7.53;;;2.08;;
20336;SDS011;10326;53.660;10.200;2023-05-29T03:23:06;11.23;;;2.38;;
20336;SDS011;10326;53.660;10.200;2023-05-29T03:25:36;10.30;;;2.22;;
20336;SDS011;10326;53.660;10.200;2023-05-29T03:28:03;9.40;;;2.20;;
20336;SDS011;10326;53.660;10.200;2023-05-29T03:30:31;11.35;;;2.72;;
20336;SDS011;10326;53.660;10.200;2023-05-29T03:32:58;7.20;;;2.30;;
20336;SDS011;10326;53.660;10.200;2023-05-29T03:35:42;7.15;;;2.70;;
20336;SDS011;10326;53.660;10.200;2023-05-29T03:38:09;8.40;;;2.50;;
20336;SDS011;10326;53.660;10.200;2023-05-29T03:40:45;8.02;;;2.35;;
20336;SDS011;10326;53.660;10.200;2023-05-29T03:43:13;7.47;;;2.30;;
20336;SDS011;10326;53.660;10.200;2023-05-29T03:45:41;7.40;;;2.40;;
20336;SDS011;10326;53.660;10.200;2023-05-29T03:48:08;9.27;;;2.63;;
20336;SDS011;10326;53.660;10.200;2023-05-29T03:50:36;12.00;;;2.80;;
20336;SDS011;10326;53.660;10.200;2023-05-29T03:53:03;9.65;;;2.78;;
20336;SDS011;10326;53.660;10.200;2023-05-29T03:55:31;8.10;;;2.30;;
20336;SDS011;10326;53.660;10.200;2023-05-29T03:58:00;7.45;;;2.10;;
20336;SDS011;10326;53.660;10.200;2023-05-29T04:00:28;11.70;;;3.05;;
20336;SDS011;10326;53.660;10.200;2023-05-29T04:03:00;8.63;;;2.78;;
20336;SDS011;10326;53.660;10.200;2023-05-29T04:05:27;9.52;;;2.28;;
20336;SDS011;10326;53.660;10.200;2023-05-29T04:07:56;9.32;;;2.80;;
20336;SDS011;10326;53.660;10.200;2023-05-29T04:10:23;10.82;;;2.67;;
20336;SDS011;10326;53.660;10.200;2023-05-29T04:12:50;8.85;;;2.30;;
20336;SDS011;10326;53.660;10.200;2023-05-29T04:15:19;8.13;;;2.88;;
20336;SDS011;10326;53.660;10.200;2023-05-29T04:17:47;8.15;;;2.13;;
20336;SDS011;10326;53.660;10.200;2023-05-29T04:20:14;10.07;;;2.65;;
20336;SDS011;10326;53.660;10.200;2023-05-29T04:22:42;7.45;;;2.38;;
20336;SDS011;10326;53.660;10.200;2023-05-29T04:25:09;10.95;;;2.97;;
20336;SDS011;10326;53.660;10.200;2023-05-29T04:27:36;9.18;;;3.05;;
20336;SDS011;10326;53.660;10.200;2023-05-29T04:30:07;9.27;;;2.40;;
20336;SDS011;10326;53.660;10.200;2023-05-29T04:32:43;9.43;;;2.65;;
20336;SDS011;10326;53.660;10.200;2023-05-29T04:35:13;11.98;;;2.70;;
20336;SDS011;10326;53.660;10.200;2023-05-29T04:37:55;8.85;;;2.50;;
20336;SDS011;10326;53.660;10.200;2023-05-29T04:40:26;9.48;;;2.60;;
20336;SDS011;10326;53.660;10.200;2023-05-29T04:42:53;6.28;;;2.10;;
20336;SDS011;10326;53.660;10.200;2023-05-29T04:45:22;9.32;;;2.60;;
20336;SDS011;10326;53.660;10.200;2023-05-29T04:47:52;9.40;;;2.70;;
20336;SDS011;10326;53.660;10.200;2023-05-29T04:50:21;8.68;;;2.88;;
20336;SDS011;10326;53.660;10.200;2023-05-29T04:52:51;9.40;;;3.15;;
20336;SDS011;10326;53.660;10.200;2023-05-29T04:55:19;12.82;;;2.92;;
20336;SDS011;10326;53.660;10.200;2023-05-29T04:57:46;11.52;;;3.00;;
20336;SDS011;10326;53.660;10.200;2023-05-29T05:00:15;11.65;;;2.80;;
20336;SDS011;10326;53.660;10.200;2023-05-29T05:02:44;10.15;;;2.75;;
20336;SDS011;10326;53.660;10.200;2023-05-29T05:05:14;13.23;;;3.45;;
20336;SDS011;10326;53.660;10.200;2023-05-29T05:07:41;10.38;;;2.60;;
20336;SDS011;10326;53.660;10.200;2023-05-29T05:10:11;11.00;;;2.42;;
20336;SDS011;10326;53.660;10.200;2023-05-29T05:12:38;8.82;;;2.75;;
20336;SDS011;10326;53.660;10.200;2023-05-29T05:15:06;9.27;;;3.00;;
20336;SDS011;10326;53.660;10.200;2023-05-29T05:17:35;13.40;;;3.20;;
20336;SDS011;10326;53.660;10.200;2023-05-29T05:20:03;10.60;;;2.67;;
20336;SDS011;10326;53.660;10.200;2023-05-29T05:22:35;10.75;;;2.90;;
20336;SDS011;10326;53.660;10.200;2023-05-29T05:25:04;22.08;;;3.42;;
20336;SDS011;10326;53.660;10.200;2023-05-29T05:27:33;10.88;;;2.97;;
20336;SDS011;10326;53.660;10.200;2023-05-29T05:30:01;13.20;;;3.22;;
20336;SDS011;10326;53.660;10.200;2023-05-29T05:32:29;10.95;;;2.58;;
20336;SDS011;10326;53.660;10.200;2023-05-29T05:35:04;8.73;;;2.25;;
20336;SDS011;10326;53.660;10.200;2023-05-29T05:37:33;8.60;;;2.65;;
20336;SDS011;10326;53.660;10.200;2023-05-29T05:40:03;10.68;;;3.00;;
20336;SDS011;10326;53.660;10.200;2023-05-29T05:42:43;12.50;;;2.83;;
20336;SDS011;10326;53.660;10.200;2023-05-29T05:45:11;9.90;;;2.75;;
20336;SDS011;10326;53.660;10.200;2023-05-29T05:47:40;9.68;;;3.13;;
20336;SDS011;10326;53.660;10.200;2023-05-29T05:50:08;12.45;;;3.00;;
20336;SDS011;10326;53.660;10.200;2023-05-29T05:52:37;11.77;;;2.90;;
20336;SDS011;10326;53.660;10.200;2023-05-29T05:55:05;9.82;;;3.63;;
20336;SDS011;10326;53.660;10.200;2023-05-29T05:57:35;9.93;;;2.60;;
20336;SDS011;10326;53.660;10.200;2023-05-29T06:00:02;11.10;;;2.58;;
20336;SDS011;10326;53.660;10.200;2023-05-29T06:02:41;12.38;;;3.03;;
20336;SDS011;10326;53.660;10.200;2023-05-29T06:05:14;10.88;;;2.92;;
20336;SDS011;10326;53.660;10.200;2023-05-29T06:07:43;9.70;;;2.97;;
20336;SDS011;10326;53.660;10.200;2023-05-29T06:10:11;9.90;;;3.17;;
20336;SDS011;10326;53.660;10.200;2023-05-29T06:12:38;9.77;;;2.80;;
20336;SDS011;10326;53.660;10.200;2023-05-29T06:15:16;12.27;;;3.30;;
20336;SDS011;10326;53.660;10.200;2023-05-29T06:17:43;11.07;;;3.05;;
20336;SDS011;10326;53.660;10.200;2023-05-29T06:20:11;9.60;;;2.80;;
20336;SDS011;10326;53.660;10.200;2023-05-29T06:22:40;12.93;;;3.30;;
20336;SDS011;10326;53.660;10.200;2023-05-29T06:25:08;11.95;;;2.55;;
20336;SDS011;10326;53.660;10.200;2023-05-29T06:27:36;8.02;;;2.67;;
20336;SDS011;10326;53.660;10.200;2023-05-29T06:30:04;10.45;;;3.17;;
20336;SDS011;10326;53.660;10.200;2023-05-29T06:32:33;11.60;;;3.00;;
20336;SDS011;10326;53.660;10.200;2023-05-29T06:35:00;11.20;;;3.08;;
20336;SDS011;10326;53.660;10.200;2023-05-29T06:37:28;14.27;;;2.83;;
20336;SDS011;10326;53.660;10.200;2023-05-29T06:39:55;11.50;;;3.10;;
20336;SDS011;10326;53.660;10.200;2023-05-29T06:42:25;10.32;;;2.97;;
20336;SDS011;10326;53.660;10.200;2023-05-29T06:44:57;11.23;;;3.25;;
20336;SDS011;10326;53.660;10.200;2023-05-29T06:47:24;13.27;;;2.95;;
20336;SDS011;10326;53.660;10.200;2023-05-29T06:49:52;11.65;;;3.17;;
20336;SDS011;10326;53.660;10.200;2023-05-29T06:52:20;10.77;;;3.22;;
20336;SDS011;10326;53.660;10.200;2023-05-29T06:55:05;11.55;;;3.17;;
20336;SDS011;10326;53.660;10.200;2023-05-29T06:57:36;11.70;;;3.20;;
20336;SDS011;10326;53.660;10.200;2023-05-29T07:00:04;10.45;;;2.92;;
20336;SDS011;10326;53.660;10.200;2023-05-29T07:02:42;13.50;;;3.70;;
20336;SDS011;10326;53.660;10.200;2023-05-29T07:05:09;7.80;;;2.72;;
20336;SDS011;10326;53.660;10.200;2023-05-29T07:07:37;8.10;;;3.00;;
20336;SDS011;10326;53.660;10.200;2023-05-29T07:10:08;9.00;;;3.10;;
20336;SDS011;10326;53.660;10.200;2023-05-29T07:12:38;11.38;;;3.25;;
20336;SDS011;10326;53.660;10.200;2023-05-29T07:15:05;9.77;;;3.20;;
20336;SDS011;10326;53.660;10.200;2023-05-29T07:17:33;8.68;;;2.83;;
20336;SDS011;10326;53.660;10.200;2023-05-29T07:20:13;12.10;;;2.83;;
20336;SDS011;10326;53.660;10.200;2023-05-29T07:22:41;10.40;;;2.67;;
20336;SDS011;10326;53.660;10.200;2023-05-29T07:25:09;11.20;;;3.30;;
20336;SDS011;10326;53.660;10.200;2023-05-29T07:27:37;11.75;;;3.22;;
20336;SDS011;10326;53.660;10.200;2023-05-29T07:30:05;6.90;;;2.47;;
20336;SDS011;10326;53.660;10.200;2023-05-29T07:32:35;11.73;;;3.20;;
20336;SDS011;10326;53.660;10.200;2023-05-29T07:35:03;10.63;;;3.42;;
20336;SDS011;10326;53.660;10.200;2023-05-29T07:37:34;8.57;;;2.75;;
20336;SDS011;10326;53.660;10.200;2023-05-29T07:40:03;10.68;;;3.20;;
20336;SDS011;10326;53.660;10.200;2023-05-29T07:42:51;10.95;;;2.97;;
20336;SDS011;10326;53.660;10.200;2023-05-29T07:45:20;7.82;;;2.90;;
20336;SDS011;10326;53.660;10.200;2023-05-29T07:47:47;10.95;;;3.47;;
20336;SDS011;10326;53.660;10.200;2023-05-29T07:50:16;10.32;;;2.83;;
20336;SDS011;10326;53.660;10.200;2023-05-29T07:52:43;10.70;;;3.17;;
20336;SDS011;10326;53.660;10.200;2023-05-29T07:55:11;13.00;;;3.13;;
20336;SDS011;10326;53.660;10.200;2023-05-29T07:57:38;10.77;;;3.17;;
20336;SDS011;10326;53.660;10.200;2023-05-29T08:00:12;7.30;;;2.35;;
20336;SDS011;10326;53.660;10.200;2023-05-29T08:02:46;10.57;;;2.67;;
20336;SDS011;10326;53.660;10.200;2023-05-29T08:05:32;10.30;;;3.15;;
20336;SDS011;10326;53.660;10.200;2023-05-29T08:08:02;10.35;;;3.20;;
20336;SDS011;10326;53.660;10.200;2023-05-29T08:10:31;9.13;;;3.08;;
20336;SDS011;10326;53.660;10.200;2023-05-29T08:12:59;9.57;;;2.70;;
20336;SDS011;10326;53.660;10.200;2023-05-29T08:15:27;8.50;;;2.67;;
20336;SDS011;10326;53.660;10.200;2023-05-29T08:17:56;9.10;;;3.13;;
20336;SDS011;10326;53.660;10.200;2023-05-29T08:20:23;9.52;;;3.05;;
20336;SDS011;10326;53.660;10.200;2023-05-29T08:22:50;12.20;;;2.90;;
20336;SDS011;10326;53.660;10.200;2023-05-29T08:25:17;8.52;;;2.53;;
20336;SDS011;10326;53.660;10.200;2023-05-29T08:27:44;9.98;;;2.70;;
20336;SDS011;10326;53.660;10.200;2023-05-29T08:30:12;9.68;;;2.90;;
20336;SDS011;10326;53.660;10.200;2023-05-29T08:32:41;9.63;;;2.85;;
20336;SDS011;10326;53.660;10.200;2023-05-29T08:35:08;10.73;;;2.78;;
20336;SDS011;10326;53.660;10.200;2023-05-29T08:37:35;8.05;;;2.65;;
20336;SDS011;10326;53.660;10.200;2023-05-29T08:40:03;7.90;;;2.45;;
20336;SDS011;10326;53.660;10.200;2023-05-29T08:42:36;7.82;;;2.47;;
20336;SDS011;10326;53.660;10.200;2023-05-29T08:45:09;7.60;;;2.47;;
20336;SDS011;10326;53.660;10.200;2023-05-29T08:47:42;7.53;;;2.42;;
20336;SDS011;10326;53.660;10.200;2023-05-29T08:50:10;11.15;;;2.88;;
20336;SDS011;10326;53.660;10.200;2023-05-29T08:52:40;5.88;;;2.70;;
20336;SDS011;10326;53.660;10.200;2023-05-29T08:55:08;7.55;;;2.80;;
20336;SDS011;10326;53.660;10.200;2023-05-29T08:57:35;6.97;;;2.53;;
20336;SDS011;10326;53.660;10.200;2023-05-29T09:00:04;8.50;;;2.60;;
20336;SDS011;10326;53.660;10.200;2023-05-29T09:02:37;7.60;;;2.83;;
20336;SDS011;10326;53.660;10.200;2023-05-29T09:05:07;8.73;;;2.45;;
20336;SDS011;10326;53.660;10.200;2023-05-29T09:07:35;7.47;;;2.60;;
20336;SDS011;10326;53.660;10.200;2023-05-29T09:10:03;7.70;;;2.40;;
20336;SDS011;10326;53.660;10.200;2023-05-29T09:12:32;6.60;;;2.10;;
20336;SDS011;10326;53.660;10.200;2023-05-29T09:15:00;8.77;;;2.45;;
20336;SDS011;10326;53.660;10.200;2023-05-29T09:17:30;9.13;;;2.50;;
20336;SDS011;10326;53.660;10.200;2023-05-29T09:19:58;8.88;;;2.35;;
20336;SDS011;10326;53.660;10.200;2023-05-29T09:22:27;6.47;;;2.35;;
20336;SDS011;10326;53.660;10.200;2023-05-29T09:24:54;9.43;;;2.50;;
20336;SDS011;10326;53.660;10.200;2023-05-29T09:27:21;7.45;;;2.70;;
20336;SDS011;10326;53.660;10.200;2023-05-29T09:29:49;9.50;;;2.85;;
20336;SDS011;10326;53.660;10.200;2023-05-29T09:32:16;8.93;;;2.80;;
20336;SDS011;10326;53.660;10.200;2023-05-29T09:34:44;6.90;;;2.33;;
20336;SDS011;10326;53.660;10.200;2023-05-29T09:37:12;9.07;;;2.50;;
20336;SDS011;10326;53.660;10.200;2023-05-29T09:39:47;8.52;;;2.13;;
20336;SDS011;10326;53.660;10.200;2023-05-29T09:42:15;6.00;;;2.25;;
20336;SDS011;10326;53.660;10.200;2023-05-29T09:44:42;7.13;;;2.47;;
20336;SDS011;10326;53.660;10.200;2023-05-29T09:47:13;11.23;;;2.42;;
20336;SDS011;10326;53.660;10.200;2023-05-29T09:49:42;5.97;;;2.30;;
20336;SDS011;10326;53.660;10.200;2023-05-29T09:52:10;7.78;;;2.40;;
20336;SDS011;10326;53.660;10.200;2023-05-29T09:54:41;7.10;;;2.20;;
20336;SDS011;10326;53.660;10.200;2023-05-29T09:57:13;6.57;;;2.30;;
20336;SDS011;10326;53.660;10.200;2023-05-29T09:59:43;7.00;;;2.53;;
20336;SDS011;10326;53.660;10.200;2023-05-29T10:02:13;8.55;;;2.55;;
20336;SDS011;10326;53.660;10.200;2023-05-29T10:04:41;6.50;;;2.08;;
20336;SDS011;10326;53.660;10.200;2023-05-29T10:07:10;6.97;;;2.35;;
20336;SDS011;10326;53.660;10.200;2023-05-29T10:09:47;6.60;;;2.58;;
20336;SDS011;10326;53.660;10.200;2023-05-29T10:12:22;7.78;;;2.22;;
20336;SDS011;10326;53.660;10.200;2023-05-29T10:14:51;7.00;;;2.20;;
20336;SDS011;10326;53.660;10.200;2023-05-29T10:17:25;5.10;;;2.08;;
20336;SDS011;10326;53.660;10.200;2023-05-29T10:20:05;7.65;;;2.72;;
20336;SDS011;10326;53.660;10.200;2023-05-29T10:22:36;7.40;;;2.30;;
20336;SDS011;10326;53.660;10.200;2023-05-29T10:25:07;5.70;;;2.30;;
20336;SDS011;10326;53.660;10.200;2023-05-29T10:27:38;5.65;;;2.25;;
20336;SDS011;10326;53.660;10.200;2023-05-29T10:30:06;6.47;;;2.22;;
20336;SDS011;10326;53.660;10.200;2023-05-29T10:32:42;6.43;;;2.47;;
20336;SDS011;10326;53.660;10.200;2023-05-29T10:35:27;6.32;;;2.38;;
20336;SDS011;10326;53.660;10.200;2023-05-29T10:38:10;6.88;;;2.38;;
20336;SDS011;10326;53.660;10.200;2023-05-29T10:40:41;6.45;;;2.40;;
20336;SDS011;10326;53.660;10.200;2023-05-29T10:43:15;6.57;;;2.38;;
20336;SDS011;10326;53.660;10.200;2023-05-29T10:45:58;5.68;;;2.00;;
20336;SDS011;10326;53.660;10.200;2023-05-29T10:48:38;7.30;;;2.40;;
20336;SDS011;10326;53.660;10.200;2023-05-29T10:53:58;7.13;;;2.10;;
20336;SDS011;10326;53.660;10.200;2023-05-29T10:56:28;6.43;;;2.35;;
20336;SDS011;10326;53.660;10.200;2023-05-29T10:58:57;6.15;;;2.40;;
20336;SDS011;10326;53.660;10.200;2023-05-29T11:01:27;6.38;;;1.88;;
20336;SDS011;10326;53.660;10.200;2023-05-29T11:06:56;6.32;;;2.38;;
20336;SDS011;10326;53.660;10.200;2023-05-29T11:09:28;5.55;;;2.08;;
20336;SDS011;10326;53.660;10.200;2023-05-29T11:12:13;5.70;;;2.03;;
20336;SDS011;10326;53.660;10.200;2023-05-29T11:14:55;5.57;;;2.38;;
20336;SDS011;10326;53.660;10.200;2023-05-29T11:17:29;7.00;;;2.10;;
20336;SDS011;10326;53.660;10.200;2023-05-29T11:20:16;5.22;;;1.98;;
20336;SDS011;10326;53.660;10.200;2023-05-29T11:23:00;5.85;;;2.45;;
20336;SDS011;10326;53.660;10.200;2023-05-29T11:25:32;6.20;;;2.22;;
20336;SDS011;10326;53.660;10.200;2023-05-29T11:28:02;6.78;;;2.55;;
20336;SDS011;10326;53.660;10.200;2023-05-29T11:30:42;8.27;;;2.42;;
20336;SDS011;10326;53.660;10.200;2023-05-29T11:33:13;7.13;;;2.42;;
20336;SDS011;10326;53.660;10.200;2023-05-29T11:35:50;6.47;;;2.17;;
20336;SDS011;10326;53.660;10.200;2023-05-29T11:38:23;9.30;;;2.10;;
20336;SDS011;10326;53.660;10.200;2023-05-29T11:40:51;7.15;;;2.60;;
20336;SDS011;10326;53.660;10.200;2023-05-29T11:43:20;6.80;;;2.30;;
20336;SDS011;10326;53.660;10.200;2023-05-29T11:48:18;5.28;;;2.15;;
20336;SDS011;10326;53.660;10.200;2023-05-29T11:50:45;5.47;;;1.67;;
20336;SDS011;10326;53.660;10.200;2023-05-29T11:53:13;5.47;;;2.20;;
20336;SDS011;10326;53.660;10.200;2023-05-29T11:55:40;7.03;;;2.40;;
20336;SDS011;10326;53.660;10.200;2023-05-29T11:58:07;6.30;;;2.22;;
20336;SDS011;10326;53.660;10.200;2023-05-29T12:00:35;4.78;;;2.30;;
20336;SDS011;10326;53.660;10.200;2023-05-29T12:03:05;7.07;;;2.05;;
20336;SDS011;10326;53.660;10.200;2023-05-29T12:05:44;6.18;;;2.63;;
20336;SDS011;10326;53.660;10.200;2023-05-29T12:08:13;5.05;;;2.20;;
20336;SDS011;10326;53.660;10.200;2023-05-29T12:10:46;4.32;;;2.33;;
20336;SDS011;10326;53.660;10.200;2023-05-29T12:13:14;5.78;;;1.80;;
20336;SDS011;10326;53.660;10.200;2023-05-29T12:15:43;6.47;;;2.08;;
20336;SDS011;10326;53.660;10.200;2023-05-29T12:18:10;6.38;;;2.00;;
20336;SDS011;10326;53.660;10.200;2023-05-29T12:20:39;4.05;;;2.05;;
20336;SDS011;10326;53.660;10.200;2023-05-29T12:23:07;4.90;;;2.05;;
20336;SDS011;10326;53.660;10.200;2023-05-29T12:25:34;5.05;;;2.00;;
20336;SDS011;10326;53.660;10.200;2023-05-29T12:28:03;8.38;;;2.22;;
20336;SDS011;10326;53.660;10.200;2023-05-29T12:30:30;6.65;;;1.90;;
20336;SDS011;10326;53.660;10.200;2023-05-29T12:33:04;4.55;;;1.85;;
20336;SDS011;10326;53.660;10.200;2023-05-29T12:35:31;6.10;;;1.98;;
20336;SDS011;10326;53.660;10.200;2023-05-29T12:38:00;5.75;;;2.20;;
20336;SDS011;10326;53.660;10.200;2023-05-29T12:40:31;5.35;;;2.25;;
20336;SDS011;10326;53.660;10.200;2023-05-29T12:42:59;4.82;;;2.20;;
20336;SDS011;10326;53.660;10.200;2023-05-29T12:45:30;8.80;;;2.53;;
20336;SDS011;10326;53.660;10.200;2023-05-29T12:48:00;6.70;;;2.45;;
20336;SDS011;10326;53.660;10.200;2023-05-29T12:50:30;7.93;;;2.33;;
20336;SDS011;10326;53.660;10.200;2023-05-29T12:53:01;3.63;;;1.70;;
20336;SDS011;10326;53.660;10.200;2023-05-29T12:55:32;4.57;;;1.88;;
20336;SDS011;10326;53.660;10.200;2023-05-29T12:58:02;7.82;;;2.35;;
20336;SDS011;10326;53.660;10.200;2023-05-29T13:00:30;7.55;;;2.30;;
20336;SDS011;10326;53.660;10.200;2023-05-29T13:02:58;5.13;;;2.08;;
20336;SDS011;10326;53.660;10.200;2023-05-29T13:05:26;4.47;;;1.80;;
20336;SDS011;10326;53.660;10.200;2023-05-29T13:07:53;5.22;;;2.20;;
20336;SDS011;10326;53.660;10.200;2023-05-29T13:10:24;5.28;;;2.03;;
20336;SDS011;10326;53.660;10.200;2023-05-29T13:12:52;5.88;;;2.13;;
20336;SDS011;10326;53.660;10.200;2023-05-29T13:15:21;5.72;;;1.92;;
20336;SDS011;10326;53.660;10.200;2023-05-29T13:17:49;5.47;;;2.10;;
20336;SDS011;10326;53.660;10.200;2023-05-29T13:20:17;5.90;;;2.28;;
20336;SDS011;10326;53.660;10.200;2023-05-29T13:22:45;8.02;;;2.38;;
20336;SDS011;10326;53.660;10.200;2023-05-29T13:25:14;6.00;;;2.13;;
20336;SDS011;10326;53.660;10.200;2023-05-29T13:27:47;5.90;;;2.08;;
20336;SDS011;10326;53.660;10.200;2023-05-29T13:30:16;6.55;;;1.80;;
20336;SDS011;10326;53.660;10.200;2023-05-29T13:32:43;4.18;;;1.77;;
20336;SDS011;10326;53.660;10.200;2023-05-29T13:35:11;3.80;;;2.13;;
20336;SDS011;10326;53.660;10.200;2023-05-29T13:37:38;5.80;;;2.13;;
20336;SDS011;10326;53.660;10.200;2023-05-29T13:40:06;8.65;;;2.22;;
20336;SDS011;10326;53.660;10.200;2023-05-29T13:42:35;4.68;;;2.03;;
20336;SDS011;10326;53.660;10.200;2023-05-29T13:45:04;5.97;;;2.10;;
20336;SDS011;10326;53.660;10.200;2023-05-29T13:47:33;7.07;;;2.25;;
20336;SDS011;10326;53.660;10.200;2023-05-29T13:50:02;4.80;;;2.15;;
20336;SDS011;10326;53.660;10.200;2023-05-29T13:52:30;5.50;;;2.20;;
20336;SDS011;10326;53.660;10.200;2023-05-29T13:54:57;7.60;;;2.30;;
20336;SDS011;10326;53.660;10.200;2023-05-29T13:57:31;4.88;;;2.10;;
20336;SDS011;10326;53.660;10.200;2023-05-29T13:59:58;5.68;;;1.77;;
20336;SDS011;10326;53.660;10.200;2023-05-29T14:02:27;5.20;;;2.20;;
20336;SDS011;10326;53.660;10.200;2023-05-29T14:04:54;5.47;;;2.30;;
20336;SDS011;10326;53.660;10.200;2023-05-29T14:07:21;5.18;;;2.03;;
20336;SDS011;10326;53.660;10.200;2023-05-29T14:09:50;9.45;;;2.58;;
20336;SDS011;10326;53.660;10.200;2023-05-29T14:12:17;4.90;;;2.00;;
20336;SDS011;10326;53.660;10.200;2023-05-29T14:14:45;6.78;;;2.15;;
20336;SDS011;10326;53.660;10.200;2023-05-29T14:17:14;5.93;;;2.25;;
20336;SDS011;10326;53.660;10.200;2023-05-29T14:19:43;5.57;;;2.00;;
20336;SDS011;10326;53.660;10.200;2023-05-29T14:22:12;5.45;;;2.05;;
20336;SDS011;10326;53.660;10.200;2023-05-29T14:24:41;5.40;;;2.15;;
20336;SDS011;10326;53.660;10.200;2023-05-29T14:27:08;4.57;;;2.05;;
20336;SDS011;10326;53.660;10.200;2023-05-29T14:29:35;4.50;;;1.65;;
20336;SDS011;10326;53.660;10.200;2023-05-29T14:32:02;4.57;;;2.30;;
20336;SDS011;10326;53.660;10.200;2023-05-29T14:34:30;6.60;;;2.20;;
20336;SDS011;10326;53.660;10.200;2023-05-29T14:36:59;5.72;;;1.92;;
20336;SDS011;10326;53.660;10.200;2023-05-29T14:39:26;7.28;;;2.33;;
20336;SDS011;10326;53.660;10.200;2023-05-29T14:41:53;5.00;;;1.88;;
20336;SDS011;10326;53.660;10.200;2023-05-29T14:44:20;5.90;;;2.00;;
20336;SDS011;10326;53.660;10.200;2023-05-29T14:46:48;3.63;;;1.83;;
20336;SDS011;10326;53.660;10.200;2023-05-29T14:49:15;5.82;;;2.13;;
20336;SDS011;10326;53.660;10.200;2023-05-29T14:51:43;7.38;;;2.30;;
20336;SDS011;10326;53.660;10.200;2023-05-29T14:54:12;5.90;;;2.13;;